Terminal Aerodrome Forecast
Issued by NWS Detroit/Pontiac, MI

Home | Current Version | Previous Version | Text Only | Print | Product List | Glossary On
Versions: 1 2 3 4 5 6 7 8 9 10 11 12 13 14
000
FTUS43 KDTX 071509 AAA
TAFFNT
TAF AMD
KFNT 071509Z 0715/0812 24010KT 4SM -SHRA FEW010 BKN016 BKN040
      TEMPO 0715/0716 2SM SHRA BKN012 OVC022
     FM071600 32012KT 3SM BR BKN008 BKN015 OVC040
     FM071700 36008KT P6SM BKN022 BKN040
     FM080300 03006KT P6SM SCT040=

USA.gov is the U.S. government's official web portal to all federal, state and local government web resources and services.